| time (UTC) | temp F | wind direction | speed MPH | gust MPH | rain 1hr in | rain 24hr in | rain mn in | humidity % | barometer mb |
| 20260506231609 | 50 | 304 | 4.0 | 8.0 | 0.00 | 0.00 | 0.00 | 39 | 1013.9 |
| 20260506230058 | 50 | 282 | 5.0 | 11.0 | 0.00 | 0.00 | 0.00 | 39 | 1014.0 |
| 20260506224608 | 50 | 302 | 4.0 | 11.0 | 0.00 | 0.00 | 0.00 | 42 | 1014.0 |
| 20260506223057 | 50 | 295 | 6.0 | 10.0 | 0.00 | 0.00 | 0.00 | 39 | 1014.3 |
| 20260506221601 | 49 | 305 | 4.0 | 12.0 | 0.00 | 0.00 | 0.00 | 40 | 1014.4 |
| 20260506214610 | 50 | 311 | 5.0 | 10.0 | 0.00 | 0.00 | 0.00 | 40 | 1014.7 |
| 20260506213100 | 49 | 286 | 7.0 | 12.0 | 0.00 | 0.00 | 0.00 | 40 | 1014.9 |
| 20260506211557 | 49 | 320 | 5.0 | 12.0 | 0.00 | 0.00 | 0.00 | 39 | 1015.0 |
| 20260506210100 | 50 | 293 | 6.0 | 15.0 | 0.00 | 0.00 | 0.00 | 42 | 1015.1 |
| 20260506204617 | 50 | 292 | 8.0 | 16.0 | 0.00 | 0.00 | 0.00 | 41 | 1015.3 |
| 20260506203057 | 50 | 302 | 7.0 | 14.0 | 0.00 | 0.00 | 0.00 | 41 | 1015.4 |
| 20260506201600 | 49 | 285 | 7.0 | 13.0 | 0.00 | 0.00 | 0.00 | 40 | 1015.6 |
| 20260506200058 | 50 | 285 | 7.0 | 16.0 | 0.00 | 0.00 | 0.00 | 43 | 1015.6 |
| 20260506194605 | 48 | 293 | 6.0 | 12.0 | 0.00 | 0.00 | 0.00 | 46 | 1015.7 |
| 20260506193101 | 48 | 309 | 6.0 | 12.0 | 0.00 | 0.00 | 0.00 | 44 | 1016.0 |
| 20260506191556 | 48 | 302 | 8.0 | 13.0 | 0.00 | 0.00 | 0.00 | 43 | 1016.0 |
| 20260506190100 | 47 | 309 | 6.0 | 14.0 | 0.00 | 0.00 | 0.00 | 44 | 1016.1 |
| 20260506184557 | 46 | 335 | 10.0 | 19.0 | 0.00 | 0.00 | 0.00 | 44 | 1016.2 |
| 20260506183109 | 47 | 314 | 5.0 | 11.0 | 0.00 | 0.00 | 0.00 | 44 | 1016.2 |
| 20260506181602 | 46 | 341 | 6.0 | 17.0 | 0.00 | 0.00 | 0.00 | 47 | 1016.4 |
| 20260506174559 | 45 | 278 | 7.0 | 15.0 | 0.00 | 0.00 | 0.00 | 47 | 1016.7 |
| 20260506173100 | 44 | 331 | 8.0 | 16.0 | 0.00 | 0.00 | 0.00 | 47 | 1016.8 |
| 20260506171605 | 44 | 311 | 11.0 | 18.0 | 0.00 | 0.00 | 0.00 | 47 | 1016.8 |
| 20260506170107 | 44 | 297 | 6.0 | 17.0 | 0.00 | 0.00 | 0.00 | 48 | 1017.0 |
| 20260506164603 | 43 | 295 | 7.0 | 16.0 | 0.00 | 0.00 | 0.00 | 49 | 1016.8 |
| 20260506163106 | 43 | 304 | 8.0 | 17.0 | 0.00 | 0.00 | 0.00 | 49 | 1017.1 |
| 20260506161607 | 42 | 297 | 6.0 | 13.0 | 0.00 | 0.00 | 0.00 | 48 | 1017.2 |
| 20260506160058 | 42 | 309 | 6.0 | 18.0 | 0.00 | 0.00 | 0.00 | 52 | 1017.2 |
| 20260506154613 | 42 | 315 | 8.0 | 17.0 | 0.00 | 0.00 | 0.00 | 51 | 1017.2 |
| 20260506153057 | 41 | 309 | 7.0 | 14.0 | 0.00 | 0.00 | 0.00 | 54 | 1017.3 |
| 20260506151558 | 41 | 287 | 5.0 | 11.0 | 0.00 | 0.00 | 0.00 | 57 | 1017.2 |
| 20260506150059 | 40 | 20 | 5.0 | 11.0 | 0.00 | 0.00 | 0.00 | 55 | 1017.3 |
| 20260506144604 | 40 | 323 | 5.0 | 16.0 | 0.00 | 0.00 | 0.00 | 57 | 1017.2 |
| 20260506143059 | 39 | 318 | 5.0 | 11.0 | 0.00 | 0.00 | 0.00 | 59 | 1017.2 |
| 20260506141604 | 39 | 324 | 4.0 | 13.0 | 0.00 | 0.00 | 0.00 | 60 | 1017.1 |
| 20260506140127 | 38 | 331 | 6.0 | 11.0 | 0.00 | 0.00 | 0.00 | 58 | 1017.2 |
| 20260506134600 | 37 | 319 | 4.0 | 7.0 | 0.00 | 0.00 | 0.00 | 66 | 1017.1 |
| 20260506133110 | 37 | 297 | 3.0 | 8.0 | 0.00 | 0.00 | 0.00 | 68 | 1017.1 |
| 20260506131601 | 36 | 302 | 4.0 | 7.0 | 0.00 | 0.00 | 0.00 | 70 | 1017.1 |
| 20260506130100 | 35 | 0 | 1.0 | 4.0 | 0.00 | 0.00 | 0.00 | 74 | 1016.9 |
| 20260506124601 | 33 | 269 | 0.0 | 1.0 | 0.00 | 0.00 | 0.00 | 78 | 1016.8 |
| 20260506123101 | 32 | 273 | 0.0 | 1.0 | 0.00 | 0.00 | 0.00 | 79 | 1016.7 |
| 20260506121558 | 32 | 281 | 0.0 | 1.0 | 0.00 | 0.00 | 0.00 | 79 | 1016.5 |
| 20260506120104 | 31 | 0 | 0.0 | 0.0 | 0.00 | 0.00 | 0.00 | 80 | 1016.3 |
| 20260506114609 | 30 | 0 | 0.0 | 0.0 | 0.00 | 0.00 | 0.00 | 79 | 1016.1 |
| 20260506113102 | 30 | 0 | 0.0 | 0.0 | 0.00 | 0.00 | 0.00 | 80 | 1015.9 |
| 20260506111607 | 30 | 0 | 0.0 | 1.0 | 0.00 | 0.00 | 0.00 | 79 | 1015.8 |
| 20260506110107 | 30 | 0 | 0.0 | 0.0 | 0.00 | 0.00 | 0.00 | 78 | 1015.7 |
| 20260506104601 | 30 | 0 | 0.0 | 0.0 | 0.00 | 0.00 | 0.00 | 77 | 1015.5 |
| 20260506103102 | 31 | 0 | 0.0 | 0.0 | 0.00 | 0.00 | 0.00 | 77 | 1015.5 |
| 20260506101559 | 31 | 0 | 0.0 | 0.0 | 0.00 | 0.00 | 0.00 | 76 | 1015.4 |
| 20260506100108 | 31 | 0 | 0.0 | 0.0 | 0.00 | 0.00 | 0.00 | 76 | 1015.3 |
| 20260506094603 | 31 | 0 | 0.0 | 1.0 | 0.00 | 0.00 | 0.00 | 76 | 1015.2 |
| 20260506093104 | 32 | 0 | 0.0 | 0.0 | 0.00 | 0.00 | 0.00 | 73 | 1015.4 |
| 20260506091609 | 34 | 0 | 0.0 | 0.0 | 0.00 | 0.00 | 0.00 | 71 | 1015.5 |
| 20260506090059 | 34 | 0 | 0.0 | 2.0 | 0.00 | 0.00 | 0.00 | 71 | 1015.7 |
| 20260506084603 | 34 | 310 | 0.0 | 1.0 | 0.00 | 0.00 | 0.00 | 72 | 1015.3 |
| 20260506083101 | 34 | 0 | 0.0 | 2.0 | 0.00 | 0.00 | 0.00 | 72 | 1015.0 |
| 20260506081601 | 33 | 0 | 0.0 | 1.0 | 0.00 | 0.00 | 0.00 | 73 | 1014.8 |
| 20260506073101 | 33 | 0 | 0.0 | 1.0 | 0.00 | 0.00 | 0.00 | 69 | 1015.2 |
| 20260506071558 | 33 | 0 | 0.0 | 2.0 | 0.00 | 0.00 | 0.00 | 70 | 1015.2 |
| 20260506070103 | 33 | 0 | 0.0 | 1.0 | 0.00 | 0.00 | 0.00 | 69 | 1015.0 |
| 20260506061613 | 35 | 0 | 0.0 | 0.0 | 0.00 | 0.00 | 0.00 | 71 | 1015.0 |
| 20260506044635 | 32 | 0 | 0.0 | 0.0 | 0.00 | 0.00 | 0.00 | 68 | 1014.8 |
| 20260506043058 | 32 | 0 | 0.0 | 0.0 | 0.00 | 0.00 | 0.00 | 67 | 1014.6 |
| 20260506041557 | 32 | 0 | 0.0 | 0.0 | 0.00 | 0.00 | 0.00 | 66 | 1014.7 |
| 20260506040059 | 33 | 0 | 0.0 | 1.0 | 0.00 | 0.00 | 0.00 | 63 | 1014.6 |
| 20260506034556 | 34 | 328 | 0.0 | 1.0 | 0.00 | 0.00 | 0.00 | 62 | 1014.6 |
| 20260506033056 | 34 | 315 | 0.0 | 1.0 | 0.00 | 0.00 | 0.00 | 61 | 1014.4 |
| 20260506031557 | 34 | 0 | 0.0 | 0.0 | 0.00 | 0.00 | 0.00 | 61 | 1014.1 |
| 20260506030059 | 35 | 0 | 0.0 | 0.0 | 0.00 | 0.00 | 0.00 | 60 | 1014.2 |
| 20260506024600 | 36 | 0 | 0.0 | 0.0 | 0.00 | 0.00 | 0.00 | 58 | 1013.9 |
| 20260506023101 | 37 | 0 | 0.0 | 1.0 | 0.00 | 0.00 | 0.00 | 55 | 1013.6 |
| 20260506021608 | 38 | 0 | 0.0 | 3.0 | 0.00 | 0.00 | 0.00 | 53 | 1013.5 |
| 20260506020056 | 39 | 13 | 1.0 | 4.0 | 0.00 | 0.00 | 0.00 | 52 | 1012.9 |
| 20260506014557 | 40 | 316 | 2.0 | 6.0 | 0.00 | 0.00 | 0.00 | 50 | 1012.8 |
| 20260506013059 | 42 | 326 | 4.0 | 9.0 | 0.00 | 0.00 | 0.00 | 48 | 1012.7 |
| 20260506011559 | 42 | 304 | 3.0 | 9.0 | 0.00 | 0.00 | 0.00 | 48 | 1012.6 |
| 20260506010115 | 42 | 344 | 6.0 | 13.0 | 0.00 | 0.00 | 0.00 | 47 | 1012.7 |
| 20260506004558 | 43 | 13 | 6.0 | 13.0 | 0.00 | 0.00 | 0.00 | 46 | 1012.5 |
| 20260506003059 | 44 | 347 | 6.0 | 12.0 | 0.00 | 0.00 | 0.00 | 44 | 1012.3 |
| 20260506001559 | 44 | 337 | 7.0 | 16.0 | 0.00 | 0.00 | 0.00 | 44 | 1012.3 |
| 20260506000100 | 44 | 350 | 7.0 | 14.0 | 0.00 | 0.00 | 0.00 | 44 | 1012.2 |
| 20260505234609 | 45 | 292 | 9.0 | 16.0 | 0.00 | 0.00 | 0.00 | 42 | 1012.2 |
| 20260505233100 | 45 | 345 | 7.0 | 15.0 | 0.00 | 0.00 | 0.00 | 42 | 1012.1 |